sensor_id;sensor_type;location;lat;lon;timestamp;temperature;humidity
65692;DHT22;52411;52.716;6.696;2022-10-16T00:00:31;13.30;99.90
65692;DHT22;52411;52.716;6.696;2022-10-16T00:02:57;13.30;99.90
65692;DHT22;52411;52.716;6.696;2022-10-16T00:05:23;13.30;99.90
65692;DHT22;52411;52.716;6.696;2022-10-16T00:07:49;13.30;99.90
65692;DHT22;52411;52.716;6.696;2022-10-16T00:10:15;13.30;99.90
65692;DHT22;52411;52.716;6.696;2022-10-16T00:12:40;13.30;99.90
65692;DHT22;52411;52.716;6.696;2022-10-16T00:15:06;13.30;99.90
65692;DHT22;52411;52.716;6.696;2022-10-16T00:17:32;13.20;99.90
65692;DHT22;52411;52.716;6.696;2022-10-16T00:19:58;13.20;99.90
65692;DHT22;52411;52.716;6.696;2022-10-16T00:22:24;13.20;99.90
65692;DHT22;52411;52.716;6.696;2022-10-16T00:24:50;13.20;99.90
65692;DHT22;52411;52.716;6.696;2022-10-16T00:27:16;13.20;99.90
65692;DHT22;52411;52.716;6.696;2022-10-16T00:29:42;13.20;99.90
65692;DHT22;52411;52.716;6.696;2022-10-16T00:32:08;13.20;99.90
65692;DHT22;52411;52.716;6.696;2022-10-16T00:34:33;13.20;99.90
65692;DHT22;52411;52.716;6.696;2022-10-16T00:36:59;13.20;99.90
65692;DHT22;52411;52.716;6.696;2022-10-16T00:39:25;13.10;99.90
65692;DHT22;52411;52.716;6.696;2022-10-16T00:41:51;13.00;99.90
65692;DHT22;52411;52.716;6.696;2022-10-16T00:49:56;12.90;99.90
65692;DHT22;52411;52.716;6.696;2022-10-16T00:52:23;12.90;99.90
65692;DHT22;52411;52.716;6.696;2022-10-16T00:54:50;12.80;99.90
65692;DHT22;52411;52.716;6.696;2022-10-16T00:57:17;12.80;99.90
65692;DHT22;52411;52.716;6.696;2022-10-16T00:59:43;12.80;99.90
65692;DHT22;52411;52.716;6.696;2022-10-16T01:02:12;12.80;99.90
65692;DHT22;52411;52.716;6.696;2022-10-16T01:04:47;12.80;99.90
65692;DHT22;52411;52.716;6.696;2022-10-16T01:07:33;12.70;99.90
65692;DHT22;52411;52.716;6.696;2022-10-16T01:13:11;12.70;99.90
65692;DHT22;52411;52.716;6.696;2022-10-16T01:15:57;12.70;99.90
65692;DHT22;52411;52.716;6.696;2022-10-16T01:18:46;12.70;99.90
65692;DHT22;52411;52.716;6.696;2022-10-16T01:21:18;12.70;99.90
65692;DHT22;52411;52.716;6.696;2022-10-16T01:26:57;12.60;99.90
65692;DHT22;52411;52.716;6.696;2022-10-16T01:29:28;12.60;99.90
65692;DHT22;52411;52.716;6.696;2022-10-16T01:32:04;12.60;99.90
65692;DHT22;52411;52.716;6.696;2022-10-16T01:34:38;12.70;99.90
65692;DHT22;52411;52.716;6.696;2022-10-16T01:37:14;12.70;99.90
65692;DHT22;52411;52.716;6.696;2022-10-16T01:39:42;12.60;99.90
65692;DHT22;52411;52.716;6.696;2022-10-16T01:49:58;12.50;99.90
65692;DHT22;52411;52.716;6.696;2022-10-16T01:52:27;12.50;99.90
65692;DHT22;52411;52.716;6.696;2022-10-16T01:54:55;12.40;99.90
65692;DHT22;52411;52.716;6.696;2022-10-16T01:57:24;12.50;99.90
65692;DHT22;52411;52.716;6.696;2022-10-16T01:59:54;12.50;99.90
65692;DHT22;52411;52.716;6.696;2022-10-16T02:02:21;12.50;99.90
65692;DHT22;52411;52.716;6.696;2022-10-16T02:05:10;12.50;99.90
65692;DHT22;52411;52.716;6.696;2022-10-16T02:07:37;12.50;99.90
65692;DHT22;52411;52.716;6.696;2022-10-16T02:10:03;12.60;99.90
65692;DHT22;52411;52.716;6.696;2022-10-16T02:12:31;12.70;99.90
65692;DHT22;52411;52.716;6.696;2022-10-16T02:14:58;12.70;99.90
65692;DHT22;52411;52.716;6.696;2022-10-16T02:17:24;12.70;99.90
65692;DHT22;52411;52.716;6.696;2022-10-16T02:19:52;12.70;99.90
65692;DHT22;52411;52.716;6.696;2022-10-16T02:22:30;12.80;99.90
65692;DHT22;52411;52.716;6.696;2022-10-16T02:30:14;12.80;99.90
65692;DHT22;52411;52.716;6.696;2022-10-16T02:32:44;12.80;99.90
65692;DHT22;52411;52.716;6.696;2022-10-16T02:35:11;12.80;99.90
65692;DHT22;52411;52.716;6.696;2022-10-16T02:37:38;12.90;99.90
65692;DHT22;52411;52.716;6.696;2022-10-16T02:40:06;12.90;99.90
65692;DHT22;52411;52.716;6.696;2022-10-16T02:42:37;12.90;99.90
65692;DHT22;52411;52.716;6.696;2022-10-16T02:45:04;12.90;99.90
65692;DHT22;52411;52.716;6.696;2022-10-16T02:47:30;13.10;99.90
65692;DHT22;52411;52.716;6.696;2022-10-16T02:49:55;13.20;99.90
65692;DHT22;52411;52.716;6.696;2022-10-16T02:52:21;13.20;99.90
65692;DHT22;52411;52.716;6.696;2022-10-16T02:54:47;13.30;99.90
65692;DHT22;52411;52.716;6.696;2022-10-16T02:57:12;13.30;99.90
65692;DHT22;52411;52.716;6.696;2022-10-16T02:59:38;13.40;99.90
65692;DHT22;52411;52.716;6.696;2022-10-16T03:02:04;13.50;99.90
65692;DHT22;52411;52.716;6.696;2022-10-16T03:04:29;13.60;99.90
65692;DHT22;52411;52.716;6.696;2022-10-16T03:06:55;13.60;99.90
65692;DHT22;52411;52.716;6.696;2022-10-16T03:09:21;13.70;99.90
65692;DHT22;52411;52.716;6.696;2022-10-16T03:11:46;13.70;99.90
65692;DHT22;52411;52.716;6.696;2022-10-16T03:14:12;13.70;99.90
65692;DHT22;52411;52.716;6.696;2022-10-16T03:16:37;13.80;99.90
65692;DHT22;52411;52.716;6.696;2022-10-16T03:19:03;13.80;99.90
65692;DHT22;52411;52.716;6.696;2022-10-16T03:21:28;13.70;99.90
65692;DHT22;52411;52.716;6.696;2022-10-16T03:23:55;13.70;99.90
65692;DHT22;52411;52.716;6.696;2022-10-16T03:26:20;13.70;99.90
65692;DHT22;52411;52.716;6.696;2022-10-16T03:28:46;13.70;99.90
65692;DHT22;52411;52.716;6.696;2022-10-16T03:31:11;13.70;99.90
65692;DHT22;52411;52.716;6.696;2022-10-16T03:33:37;13.80;99.90
65692;DHT22;52411;52.716;6.696;2022-10-16T03:36:03;13.80;99.90
65692;DHT22;52411;52.716;6.696;2022-10-16T03:38:28;13.70;99.90
65692;DHT22;52411;52.716;6.696;2022-10-16T03:40:54;13.70;99.90
65692;DHT22;52411;52.716;6.696;2022-10-16T03:43:19;13.70;99.90
65692;DHT22;52411;52.716;6.696;2022-10-16T03:45:45;13.70;99.90
65692;DHT22;52411;52.716;6.696;2022-10-16T03:48:11;13.70;99.90
65692;DHT22;52411;52.716;6.696;2022-10-16T03:50:36;13.70;99.90
65692;DHT22;52411;52.716;6.696;2022-10-16T03:53:02;13.60;99.90
65692;DHT22;52411;52.716;6.696;2022-10-16T03:55:28;13.60;99.90
65692;DHT22;52411;52.716;6.696;2022-10-16T03:57:53;13.60;99.90
65692;DHT22;52411;52.716;6.696;2022-10-16T04:00:19;13.50;99.90
65692;DHT22;52411;52.716;6.696;2022-10-16T04:02:44;13.50;99.90
65692;DHT22;52411;52.716;6.696;2022-10-16T04:05:10;13.50;99.90
65692;DHT22;52411;52.716;6.696;2022-10-16T04:07:36;13.50;99.90
65692;DHT22;52411;52.716;6.696;2022-10-16T04:10:02;13.40;99.90
65692;DHT22;52411;52.716;6.696;2022-10-16T04:12:28;13.40;99.90
65692;DHT22;52411;52.716;6.696;2022-10-16T04:14:53;13.30;99.90
65692;DHT22;52411;52.716;6.696;2022-10-16T04:17:19;13.30;99.90
65692;DHT22;52411;52.716;6.696;2022-10-16T04:19:44;13.30;99.90
65692;DHT22;52411;52.716;6.696;2022-10-16T04:22:10;13.20;99.90
65692;DHT22;52411;52.716;6.696;2022-10-16T04:24:36;13.20;99.90
65692;DHT22;52411;52.716;6.696;2022-10-16T04:27:01;13.20;99.90
65692;DHT22;52411;52.716;6.696;2022-10-16T04:29:27;13.20;99.90
65692;DHT22;52411;52.716;6.696;2022-10-16T04:31:52;13.30;99.90
65692;DHT22;52411;52.716;6.696;2022-10-16T04:34:18;13.20;99.90
65692;DHT22;52411;52.716;6.696;2022-10-16T04:36:43;13.20;99.90
65692;DHT22;52411;52.716;6.696;2022-10-16T04:39:09;13.20;99.90
65692;DHT22;52411;52.716;6.696;2022-10-16T04:41:35;13.20;99.90
65692;DHT22;52411;52.716;6.696;2022-10-16T04:44:00;13.10;99.90
65692;DHT22;52411;52.716;6.696;2022-10-16T04:46:26;13.20;99.90
65692;DHT22;52411;52.716;6.696;2022-10-16T04:48:51;13.10;99.90
65692;DHT22;52411;52.716;6.696;2022-10-16T04:51:17;13.10;99.90
65692;DHT22;52411;52.716;6.696;2022-10-16T04:53:44;13.20;99.90
65692;DHT22;52411;52.716;6.696;2022-10-16T04:56:09;13.10;99.90
65692;DHT22;52411;52.716;6.696;2022-10-16T04:58:35;13.10;99.90
65692;DHT22;52411;52.716;6.696;2022-10-16T05:01:01;13.10;99.90
65692;DHT22;52411;52.716;6.696;2022-10-16T05:03:26;13.10;99.90
65692;DHT22;52411;52.716;6.696;2022-10-16T05:05:52;13.10;99.90
65692;DHT22;52411;52.716;6.696;2022-10-16T05:08:18;13.00;99.90
65692;DHT22;52411;52.716;6.696;2022-10-16T05:10:44;13.00;99.90
65692;DHT22;52411;52.716;6.696;2022-10-16T05:13:10;13.00;99.90
65692;DHT22;52411;52.716;6.696;2022-10-16T05:15:36;13.00;99.90
65692;DHT22;52411;52.716;6.696;2022-10-16T05:18:02;12.90;99.90
65692;DHT22;52411;52.716;6.696;2022-10-16T05:20:28;12.90;99.90
65692;DHT22;52411;52.716;6.696;2022-10-16T05:22:53;12.90;99.90
65692;DHT22;52411;52.716;6.696;2022-10-16T05:25:19;12.80;99.90
65692;DHT22;52411;52.716;6.696;2022-10-16T05:27:48;12.80;99.90
65692;DHT22;52411;52.716;6.696;2022-10-16T05:30:14;12.90;99.90
65692;DHT22;52411;52.716;6.696;2022-10-16T05:32:40;12.90;99.90
65692;DHT22;52411;52.716;6.696;2022-10-16T05:35:06;12.80;99.90
65692;DHT22;52411;52.716;6.696;2022-10-16T05:37:31;12.90;99.90
65692;DHT22;52411;52.716;6.696;2022-10-16T05:39:57;12.80;99.90
65692;DHT22;52411;52.716;6.696;2022-10-16T05:42:22;12.90;99.90
65692;DHT22;52411;52.716;6.696;2022-10-16T05:44:48;12.80;99.90
65692;DHT22;52411;52.716;6.696;2022-10-16T05:47:14;12.90;99.90
65692;DHT22;52411;52.716;6.696;2022-10-16T05:49:40;12.90;99.90
65692;DHT22;52411;52.716;6.696;2022-10-16T05:52:05;12.80;99.90
65692;DHT22;52411;52.716;6.696;2022-10-16T05:54:31;12.80;99.90
65692;DHT22;52411;52.716;6.696;2022-10-16T05:56:56;12.80;99.90
65692;DHT22;52411;52.716;6.696;2022-10-16T05:59:22;12.90;99.90
65692;DHT22;52411;52.716;6.696;2022-10-16T06:01:47;12.80;99.90
65692;DHT22;52411;52.716;6.696;2022-10-16T06:04:13;12.80;99.90
65692;DHT22;52411;52.716;6.696;2022-10-16T06:06:38;12.80;99.90
65692;DHT22;52411;52.716;6.696;2022-10-16T06:09:04;12.80;99.90
65692;DHT22;52411;52.716;6.696;2022-10-16T06:11:31;12.80;99.90
65692;DHT22;52411;52.716;6.696;2022-10-16T06:13:59;12.80;99.90
65692;DHT22;52411;52.716;6.696;2022-10-16T06:16:27;12.80;99.90
65692;DHT22;52411;52.716;6.696;2022-10-16T06:18:53;12.90;99.90
65692;DHT22;52411;52.716;6.696;2022-10-16T06:21:22;12.90;99.90
65692;DHT22;52411;52.716;6.696;2022-10-16T06:23:51;13.00;99.90
65692;DHT22;52411;52.716;6.696;2022-10-16T06:26:18;12.90;99.90
65692;DHT22;52411;52.716;6.696;2022-10-16T06:28:45;13.00;99.90
65692;DHT22;52411;52.716;6.696;2022-10-16T06:31:12;13.00;99.90
65692;DHT22;52411;52.716;6.696;2022-10-16T06:33:38;13.00;99.90
65692;DHT22;52411;52.716;6.696;2022-10-16T06:36:13;13.00;99.90
65692;DHT22;52411;52.716;6.696;2022-10-16T06:38:40;13.10;99.90
65692;DHT22;52411;52.716;6.696;2022-10-16T06:41:07;13.10;99.90
65692;DHT22;52411;52.716;6.696;2022-10-16T06:43:33;13.10;99.90
65692;DHT22;52411;52.716;6.696;2022-10-16T06:46:01;13.10;99.90
65692;DHT22;52411;52.716;6.696;2022-10-16T06:48:27;13.10;99.90
65692;DHT22;52411;52.716;6.696;2022-10-16T06:51:02;13.20;99.90
65692;DHT22;52411;52.716;6.696;2022-10-16T06:53:30;13.20;99.90
65692;DHT22;52411;52.716;6.696;2022-10-16T06:55:57;13.20;99.90
65692;DHT22;52411;52.716;6.696;2022-10-16T06:58:23;13.20;99.90
65692;DHT22;52411;52.716;6.696;2022-10-16T07:00:49;13.30;99.90
65692;DHT22;52411;52.716;6.696;2022-10-16T07:03:20;13.30;99.90
65692;DHT22;52411;52.716;6.696;2022-10-16T07:05:45;13.40;99.90
65692;DHT22;52411;52.716;6.696;2022-10-16T07:08:11;13.40;99.90
65692;DHT22;52411;52.716;6.696;2022-10-16T07:10:36;13.50;99.90
65692;DHT22;52411;52.716;6.696;2022-10-16T07:13:02;13.50;99.90
65692;DHT22;52411;52.716;6.696;2022-10-16T07:15:28;13.50;99.90
65692;DHT22;52411;52.716;6.696;2022-10-16T07:17:54;13.60;99.90
65692;DHT22;52411;52.716;6.696;2022-10-16T07:20:19;13.60;99.90
65692;DHT22;52411;52.716;6.696;2022-10-16T07:22:45;13.60;99.90
65692;DHT22;52411;52.716;6.696;2022-10-16T07:25:10;13.60;99.90
65692;DHT22;52411;52.716;6.696;2022-10-16T07:27:37;13.60;99.90
65692;DHT22;52411;52.716;6.696;2022-10-16T07:30:03;13.70;99.90
65692;DHT22;52411;52.716;6.696;2022-10-16T07:32:29;13.70;99.90
65692;DHT22;52411;52.716;6.696;2022-10-16T07:34:54;13.80;99.90
65692;DHT22;52411;52.716;6.696;2022-10-16T07:37:21;13.90;99.90
65692;DHT22;52411;52.716;6.696;2022-10-16T07:39:47;13.90;99.90
65692;DHT22;52411;52.716;6.696;2022-10-16T07:42:12;14.00;99.90
65692;DHT22;52411;52.716;6.696;2022-10-16T07:44:38;14.00;99.90
65692;DHT22;52411;52.716;6.696;2022-10-16T07:47:03;14.00;99.90
65692;DHT22;52411;52.716;6.696;2022-10-16T07:49:29;14.10;99.90
65692;DHT22;52411;52.716;6.696;2022-10-16T07:51:55;14.10;99.90
65692;DHT22;52411;52.716;6.696;2022-10-16T07:54:20;14.10;99.90
65692;DHT22;52411;52.716;6.696;2022-10-16T07:56:46;14.10;99.90
65692;DHT22;52411;52.716;6.696;2022-10-16T07:59:11;14.20;99.90
65692;DHT22;52411;52.716;6.696;2022-10-16T08:01:37;14.20;99.90
65692;DHT22;52411;52.716;6.696;2022-10-16T08:04:03;14.20;99.90
65692;DHT22;52411;52.716;6.696;2022-10-16T08:06:28;14.20;99.90
65692;DHT22;52411;52.716;6.696;2022-10-16T08:08:55;14.20;99.90
65692;DHT22;52411;52.716;6.696;2022-10-16T08:11:21;14.20;99.90
65692;DHT22;52411;52.716;6.696;2022-10-16T08:13:47;14.30;99.90
65692;DHT22;52411;52.716;6.696;2022-10-16T08:16:13;14.40;99.90
65692;DHT22;52411;52.716;6.696;2022-10-16T08:18:40;14.40;99.90
65692;DHT22;52411;52.716;6.696;2022-10-16T08:21:07;14.40;99.90
65692;DHT22;52411;52.716;6.696;2022-10-16T08:23:33;14.40;99.90
65692;DHT22;52411;52.716;6.696;2022-10-16T08:26:07;14.50;99.90
65692;DHT22;52411;52.716;6.696;2022-10-16T08:28:33;14.50;99.90
65692;DHT22;52411;52.716;6.696;2022-10-16T08:31:13;14.50;99.90
65692;DHT22;52411;52.716;6.696;2022-10-16T08:33:42;14.60;99.90
65692;DHT22;52411;52.716;6.696;2022-10-16T08:36:10;14.60;99.90
65692;DHT22;52411;52.716;6.696;2022-10-16T08:38:36;14.70;99.90
65692;DHT22;52411;52.716;6.696;2022-10-16T08:47:20;14.80;99.90
65692;DHT22;52411;52.716;6.696;2022-10-16T08:49:57;14.80;99.90
65692;DHT22;52411;52.716;6.696;2022-10-16T08:52:28;14.80;99.90
65692;DHT22;52411;52.716;6.696;2022-10-16T08:54:55;14.80;99.90
65692;DHT22;52411;52.716;6.696;2022-10-16T08:57:24;14.80;99.90
65692;DHT22;52411;52.716;6.696;2022-10-16T08:59:51;14.80;99.90
65692;DHT22;52411;52.716;6.696;2022-10-16T09:02:24;14.70;99.90
65692;DHT22;52411;52.716;6.696;2022-10-16T09:08:11;14.80;99.90
65692;DHT22;52411;52.716;6.696;2022-10-16T09:10:57;14.80;99.90
65692;DHT22;52411;52.716;6.696;2022-10-16T09:16:18;15.10;99.90
65692;DHT22;52411;52.716;6.696;2022-10-16T09:18:51;15.10;99.90
65692;DHT22;52411;52.716;6.696;2022-10-16T09:21:28;15.20;99.90
65692;DHT22;52411;52.716;6.696;2022-10-16T09:23:59;15.30;99.90
65692;DHT22;52411;52.716;6.696;2022-10-16T09:26:30;15.40;99.90
65692;DHT22;52411;52.716;6.696;2022-10-16T09:28:55;15.40;99.90
65692;DHT22;52411;52.716;6.696;2022-10-16T09:31:22;15.50;99.90
65692;DHT22;52411;52.716;6.696;2022-10-16T09:33:55;15.50;99.90
65692;DHT22;52411;52.716;6.696;2022-10-16T09:36:22;15.60;99.90
65692;DHT22;52411;52.716;6.696;2022-10-16T09:38:49;15.60;99.90
65692;DHT22;52411;52.716;6.696;2022-10-16T09:41:22;15.70;99.90
65692;DHT22;52411;52.716;6.696;2022-10-16T09:43:56;15.80;99.90
65692;DHT22;52411;52.716;6.696;2022-10-16T09:46:28;15.90;99.90
65692;DHT22;52411;52.716;6.696;2022-10-16T09:49:00;15.90;99.90
65692;DHT22;52411;52.716;6.696;2022-10-16T09:51:30;15.80;99.90
65692;DHT22;52411;52.716;6.696;2022-10-16T09:56:36;15.90;99.90
65692;DHT22;52411;52.716;6.696;2022-10-16T09:59:13;15.90;99.90
65692;DHT22;52411;52.716;6.696;2022-10-16T10:04:08;16.00;99.90
65692;DHT22;52411;52.716;6.696;2022-10-16T10:06:34;16.10;99.90
65692;DHT22;52411;52.716;6.696;2022-10-16T10:11:52;16.20;99.90
65692;DHT22;52411;52.716;6.696;2022-10-16T10:14:27;16.20;99.90
65692;DHT22;52411;52.716;6.696;2022-10-16T10:19:39;16.40;99.90
65692;DHT22;52411;52.716;6.696;2022-10-16T10:25:12;16.50;99.90
65692;DHT22;52411;52.716;6.696;2022-10-16T10:28:04;16.40;99.90
65692;DHT22;52411;52.716;6.696;2022-10-16T10:36:16;16.80;99.90
65692;DHT22;52411;52.716;6.696;2022-10-16T10:39:06;16.80;99.90
65692;DHT22;52411;52.716;6.696;2022-10-16T10:41:59;16.80;99.90
65692;DHT22;52411;52.716;6.696;2022-10-16T10:45:01;16.80;99.90
65692;DHT22;52411;52.716;6.696;2022-10-16T10:47:40;17.00;99.90
65692;DHT22;52411;52.716;6.696;2022-10-16T10:50:12;17.00;99.90
65692;DHT22;52411;52.716;6.696;2022-10-16T10:53:30;16.90;99.90
65692;DHT22;52411;52.716;6.696;2022-10-16T10:58:51;17.20;99.90
65692;DHT22;52411;52.716;6.696;2022-10-16T11:01:37;17.10;99.90
65692;DHT22;52411;52.716;6.696;2022-10-16T11:07:52;17.10;99.90
65692;DHT22;52411;52.716;6.696;2022-10-16T11:10:27;17.20;99.90
65692;DHT22;52411;52.716;6.696;2022-10-16T11:13:04;17.10;99.90
65692;DHT22;52411;52.716;6.696;2022-10-16T11:15:36;17.10;99.90
65692;DHT22;52411;52.716;6.696;2022-10-16T11:18:11;17.20;99.90
65692;DHT22;52411;52.716;6.696;2022-10-16T11:20:42;17.20;99.90
65692;DHT22;52411;52.716;6.696;2022-10-16T11:26:16;16.90;99.90
65692;DHT22;52411;52.716;6.696;2022-10-16T11:28:51;16.70;99.90
65692;DHT22;52411;52.716;6.696;2022-10-16T11:31:42;16.80;99.90
65692;DHT22;52411;52.716;6.696;2022-10-16T11:34:29;16.80;99.90
65692;DHT22;52411;52.716;6.696;2022-10-16T11:37:05;16.90;99.90
65692;DHT22;52411;52.716;6.696;2022-10-16T11:39:34;17.00;99.90
65692;DHT22;52411;52.716;6.696;2022-10-16T11:42:39;17.00;99.90
65692;DHT22;52411;52.716;6.696;2022-10-16T11:47:54;17.10;99.90
65692;DHT22;52411;52.716;6.696;2022-10-16T11:50:38;17.00;99.90
65692;DHT22;52411;52.716;6.696;2022-10-16T11:55:53;17.20;99.90
65692;DHT22;52411;52.716;6.696;2022-10-16T12:01:22;17.20;99.90
65692;DHT22;52411;52.716;6.696;2022-10-16T12:04:06;17.40;99.90
65692;DHT22;52411;52.716;6.696;2022-10-16T12:06:44;17.50;99.90
65692;DHT22;52411;52.716;6.696;2022-10-16T12:09:26;17.60;99.90
65692;DHT22;52411;52.716;6.696;2022-10-16T12:11:52;17.60;99.90
65692;DHT22;52411;52.716;6.696;2022-10-16T12:14:34;17.80;99.90
65692;DHT22;52411;52.716;6.696;2022-10-16T12:20:20;17.60;99.90
65692;DHT22;52411;52.716;6.696;2022-10-16T12:22:58;17.40;99.90
65692;DHT22;52411;52.716;6.696;2022-10-16T12:25:39;17.30;99.90
65692;DHT22;52411;52.716;6.696;2022-10-16T12:28:21;17.40;99.90
65692;DHT22;52411;52.716;6.696;2022-10-16T12:31:01;17.50;99.90
65692;DHT22;52411;52.716;6.696;2022-10-16T12:33:42;17.70;99.90
65692;DHT22;52411;52.716;6.696;2022-10-16T12:36:16;17.90;99.90
65692;DHT22;52411;52.716;6.696;2022-10-16T12:38:52;18.10;99.90
65692;DHT22;52411;52.716;6.696;2022-10-16T12:41:30;18.10;99.90
65692;DHT22;52411;52.716;6.696;2022-10-16T12:43:56;18.30;99.90
65692;DHT22;52411;52.716;6.696;2022-10-16T12:46:33;18.20;99.90
65692;DHT22;52411;52.716;6.696;2022-10-16T12:51:38;18.20;99.90
65692;DHT22;52411;52.716;6.696;2022-10-16T12:54:12;18.20;99.90
65692;DHT22;52411;52.716;6.696;2022-10-16T13:07:44;17.90;99.90
65692;DHT22;52411;52.716;6.696;2022-10-16T13:10:26;17.80;99.90
65692;DHT22;52411;52.716;6.696;2022-10-16T13:18:40;17.60;99.90
65692;DHT22;52411;52.716;6.696;2022-10-16T13:21:31;17.60;99.90
65692;DHT22;52411;52.716;6.696;2022-10-16T13:24:25;17.60;99.90
65692;DHT22;52411;52.716;6.696;2022-10-16T13:27:05;17.60;99.90
65692;DHT22;52411;52.716;6.696;2022-10-16T13:29:32;17.50;99.90
65692;DHT22;52411;52.716;6.696;2022-10-16T13:32:01;17.50;99.90
65692;DHT22;52411;52.716;6.696;2022-10-16T13:34:32;17.60;99.90
65692;DHT22;52411;52.716;6.696;2022-10-16T13:36:57;17.60;99.90
65692;DHT22;52411;52.716;6.696;2022-10-16T13:39:25;17.60;99.90
65692;DHT22;52411;52.716;6.696;2022-10-16T13:42:31;17.60;99.90
65692;DHT22;52411;52.716;6.696;2022-10-16T13:44:52;17.60;99.90
65692;DHT22;52411;52.716;6.696;2022-10-16T13:47:24;17.60;99.90
65692;DHT22;52411;52.716;6.696;2022-10-16T13:50:01;17.60;99.90
65692;DHT22;52411;52.716;6.696;2022-10-16T13:52:28;17.60;99.90
65692;DHT22;52411;52.716;6.696;2022-10-16T13:54:53;17.60;99.90
65692;DHT22;52411;52.716;6.696;2022-10-16T13:57:23;17.60;99.90
65692;DHT22;52411;52.716;6.696;2022-10-16T13:59:49;17.60;99.90
65692;DHT22;52411;52.716;6.696;2022-10-16T14:02:39;17.60;99.90
65692;DHT22;52411;52.716;6.696;2022-10-16T14:05:04;17.60;99.90
65692;DHT22;52411;52.716;6.696;2022-10-16T14:07:34;17.50;99.90
65692;DHT22;52411;52.716;6.696;2022-10-16T14:10:18;17.50;99.90
65692;DHT22;52411;52.716;6.696;2022-10-16T14:12:47;17.50;99.90
65692;DHT22;52411;52.716;6.696;2022-10-16T14:15:19;17.60;99.90
65692;DHT22;52411;52.716;6.696;2022-10-16T14:17:50;17.60;99.90
65692;DHT22;52411;52.716;6.696;2022-10-16T14:20:16;17.50;99.90
65692;DHT22;52411;52.716;6.696;2022-10-16T14:22:43;17.40;99.90
65692;DHT22;52411;52.716;6.696;2022-10-16T14:30:55;17.40;99.90
65692;DHT22;52411;52.716;6.696;2022-10-16T14:38:34;17.50;99.90
65692;DHT22;52411;52.716;6.696;2022-10-16T14:41:00;17.50;99.90
65692;DHT22;52411;52.716;6.696;2022-10-16T14:46:01;17.50;99.90
65692;DHT22;52411;52.716;6.696;2022-10-16T14:48:28;17.50;99.90
65692;DHT22;52411;52.716;6.696;2022-10-16T14:50:53;17.40;99.90
65692;DHT22;52411;52.716;6.696;2022-10-16T14:53:19;17.40;99.90
65692;DHT22;52411;52.716;6.696;2022-10-16T14:55:45;17.30;99.90
65692;DHT22;52411;52.716;6.696;2022-10-16T14:58:19;17.30;99.90
65692;DHT22;52411;52.716;6.696;2022-10-16T15:00:45;17.30;99.90
65692;DHT22;52411;52.716;6.696;2022-10-16T15:03:11;17.30;99.90
65692;DHT22;52411;52.716;6.696;2022-10-16T15:05:37;17.30;99.90
65692;DHT22;52411;52.716;6.696;2022-10-16T15:08:02;17.30;99.90
65692;DHT22;52411;52.716;6.696;2022-10-16T15:10:31;17.30;99.90
65692;DHT22;52411;52.716;6.696;2022-10-16T15:12:58;17.20;99.90
65692;DHT22;52411;52.716;6.696;2022-10-16T15:17:58;17.10;99.90
65692;DHT22;52411;52.716;6.696;2022-10-16T15:20:36;17.10;99.90
65692;DHT22;52411;52.716;6.696;2022-10-16T15:23:14;17.00;99.90
65692;DHT22;52411;52.716;6.696;2022-10-16T15:25:45;17.00;99.90
65692;DHT22;52411;52.716;6.696;2022-10-16T15:28:12;16.90;99.90
65692;DHT22;52411;52.716;6.696;2022-10-16T15:30:38;16.80;99.90
65692;DHT22;52411;52.716;6.696;2022-10-16T15:33:05;16.80;99.90
65692;DHT22;52411;52.716;6.696;2022-10-16T15:35:34;16.80;99.90
65692;DHT22;52411;52.716;6.696;2022-10-16T15:37:59;16.70;99.90
65692;DHT22;52411;52.716;6.696;2022-10-16T15:40:25;16.60;99.90
65692;DHT22;52411;52.716;6.696;2022-10-16T15:42:51;16.50;99.90
65692;DHT22;52411;52.716;6.696;2022-10-16T15:45:16;16.50;99.90
65692;DHT22;52411;52.716;6.696;2022-10-16T15:47:44;16.30;99.90
65692;DHT22;52411;52.716;6.696;2022-10-16T15:50:11;16.20;99.90
65692;DHT22;52411;52.716;6.696;2022-10-16T15:52:38;16.10;99.90
65692;DHT22;52411;52.716;6.696;2022-10-16T15:55:06;16.10;99.90
65692;DHT22;52411;52.716;6.696;2022-10-16T15:57:31;16.00;99.90
65692;DHT22;52411;52.716;6.696;2022-10-16T15:59:57;16.00;99.90
65692;DHT22;52411;52.716;6.696;2022-10-16T16:02:22;16.00;99.90
65692;DHT22;52411;52.716;6.696;2022-10-16T16:04:48;16.00;99.90
65692;DHT22;52411;52.716;6.696;2022-10-16T16:07:14;15.90;99.90
65692;DHT22;52411;52.716;6.696;2022-10-16T16:09:39;15.80;99.90
65692;DHT22;52411;52.716;6.696;2022-10-16T16:12:05;15.60;99.90
65692;DHT22;52411;52.716;6.696;2022-10-16T16:14:30;15.60;99.90
65692;DHT22;52411;52.716;6.696;2022-10-16T16:16:57;15.50;99.90
65692;DHT22;52411;52.716;6.696;2022-10-16T16:19:22;15.40;99.90
65692;DHT22;52411;52.716;6.696;2022-10-16T16:21:49;15.30;99.90
65692;DHT22;52411;52.716;6.696;2022-10-16T16:24:15;15.30;99.90
65692;DHT22;52411;52.716;6.696;2022-10-16T16:26:41;15.20;99.90
65692;DHT22;52411;52.716;6.696;2022-10-16T16:29:14;15.20;99.90
65692;DHT22;52411;52.716;6.696;2022-10-16T16:31:40;14.90;99.90
65692;DHT22;52411;52.716;6.696;2022-10-16T16:34:07;14.70;99.90
65692;DHT22;52411;52.716;6.696;2022-10-16T16:36:33;14.50;99.90
65692;DHT22;52411;52.716;6.696;2022-10-16T16:38:58;14.40;99.90
65692;DHT22;52411;52.716;6.696;2022-10-16T16:41:26;14.20;99.90
65692;DHT22;52411;52.716;6.696;2022-10-16T16:43:53;14.30;99.90
65692;DHT22;52411;52.716;6.696;2022-10-16T16:46:19;14.30;99.90
65692;DHT22;52411;52.716;6.696;2022-10-16T16:48:45;14.20;99.90
65692;DHT22;52411;52.716;6.696;2022-10-16T16:51:14;14.20;99.90
65692;DHT22;52411;52.716;6.696;2022-10-16T16:53:44;14.30;99.90
65692;DHT22;52411;52.716;6.696;2022-10-16T16:56:09;14.20;99.90
65692;DHT22;52411;52.716;6.696;2022-10-16T16:58:35;14.10;99.90
65692;DHT22;52411;52.716;6.696;2022-10-16T17:01:01;14.00;99.90
65692;DHT22;52411;52.716;6.696;2022-10-16T17:03:33;14.00;99.90
65692;DHT22;52411;52.716;6.696;2022-10-16T17:05:59;14.00;99.90
65692;DHT22;52411;52.716;6.696;2022-10-16T17:08:25;13.90;99.90
65692;DHT22;52411;52.716;6.696;2022-10-16T17:10:50;13.90;99.90
65692;DHT22;52411;52.716;6.696;2022-10-16T17:13:24;13.80;99.90
65692;DHT22;52411;52.716;6.696;2022-10-16T17:15:50;13.70;99.90
65692;DHT22;52411;52.716;6.696;2022-10-16T17:18:16;13.60;99.90
65692;DHT22;52411;52.716;6.696;2022-10-16T17:20:43;13.50;99.90
65692;DHT22;52411;52.716;6.696;2022-10-16T17:23:09;13.40;99.90
65692;DHT22;52411;52.716;6.696;2022-10-16T17:25:37;13.30;99.90
65692;DHT22;52411;52.716;6.696;2022-10-16T17:28:03;13.20;99.90
65692;DHT22;52411;52.716;6.696;2022-10-16T17:30:29;13.20;99.90
65692;DHT22;52411;52.716;6.696;2022-10-16T17:32:55;13.10;99.90
65692;DHT22;52411;52.716;6.696;2022-10-16T17:35:21;13.00;99.90